createdAt,value
2023-02-26T00:01:30.492Z,59.40
2023-02-26T00:04:00.721Z,59.30
2023-02-26T00:06:29.290Z,59.80
2023-02-26T00:08:56.908Z,59.10
2023-02-26T00:11:24.102Z,59.00
2023-02-26T00:13:51.396Z,59.00
2023-02-26T00:16:21.735Z,58.80
2023-02-26T00:18:49.097Z,58.50
2023-02-26T00:21:23.950Z,58.40
2023-02-26T00:23:51.841Z,58.00
2023-02-26T00:26:19.409Z,57.80
2023-02-26T00:28:46.838Z,57.60
2023-02-26T00:31:17.628Z,57.40
2023-02-26T00:33:45.181Z,57.20
2023-02-26T00:36:21.362Z,57.60
2023-02-26T00:38:59.289Z,56.80
2023-02-26T00:41:26.519Z,56.70
2023-02-26T00:43:54.065Z,56.60
2023-02-26T00:46:42.868Z,56.60
2023-02-26T00:49:37.561Z,56.60
2023-02-26T00:52:10.626Z,56.60
2023-02-26T00:54:37.577Z,56.60
2023-02-26T00:57:05.993Z,56.60
2023-02-26T00:59:32.978Z,56.60
2023-02-26T01:02:01.888Z,56.70
2023-02-26T01:04:29.116Z,56.80
2023-02-26T01:06:57.827Z,56.80
2023-02-26T01:09:30.019Z,56.90
2023-02-26T01:12:03.618Z,57.00
2023-02-26T01:14:32.662Z,57.00
2023-02-26T01:17:23.363Z,57.00
2023-02-26T01:20:01.201Z,57.00
2023-02-26T01:22:31.520Z,56.90
2023-02-26T01:25:14.435Z,57.00
2023-02-26T01:27:41.898Z,57.30
2023-02-26T01:30:11.502Z,57.50
2023-02-26T01:33:05.712Z,57.40
2023-02-26T01:35:49.235Z,57.60
2023-02-26T01:38:31.338Z,57.80
2023-02-26T01:41:10.548Z,58.00
2023-02-26T01:43:43.304Z,58.10
2023-02-26T01:46:24.961Z,58.20
2023-02-26T01:48:53.322Z,58.20
2023-02-26T01:51:42.393Z,58.40
2023-02-26T01:54:09.649Z,58.60
2023-02-26T01:56:37.848Z,58.60
2023-02-26T01:59:06.977Z,58.50
2023-02-26T02:01:36.331Z,58.50
2023-02-26T02:04:04.811Z,58.70
2023-02-26T02:06:31.770Z,58.70
2023-02-26T02:08:59.047Z,58.60
2023-02-26T02:11:27.023Z,58.60
2023-02-26T02:14:06.099Z,58.60
2023-02-26T02:17:01.569Z,58.50
2023-02-26T02:19:50.501Z,58.60
2023-02-26T02:22:40.191Z,58.60
2023-02-26T02:25:45.136Z,58.60
2023-02-26T02:28:14.277Z,58.70
2023-02-26T02:31:07.079Z,58.70
2023-02-26T02:33:49.359Z,58.70
2023-02-26T02:36:51.485Z,58.70
2023-02-26T02:39:32.581Z,58.70
2023-02-26T02:42:26.095Z,58.80
2023-02-26T02:45:10.926Z,58.80
2023-02-26T02:47:43.005Z,58.80
2023-02-26T02:50:33.072Z,58.80
2023-02-26T02:53:07.749Z,58.90
2023-02-26T02:55:38.895Z,59.00
2023-02-26T02:58:12.840Z,59.00
2023-02-26T03:00:46.688Z,59.00
2023-02-26T03:03:33.415Z,59.00
2023-02-26T03:06:00.520Z,59.00
2023-02-26T03:08:31.411Z,59.00
2023-02-26T03:10:58.567Z,59.10
2023-02-26T03:13:26.884Z,59.20
2023-02-26T03:16:19.746Z,59.20
2023-02-26T03:19:05.959Z,59.30
2023-02-26T03:21:42.542Z,59.30
2023-02-26T03:24:25.782Z,59.20
2023-02-26T03:27:20.327Z,59.10
2023-02-26T03:29:59.530Z,59.00
2023-02-26T03:32:47.659Z,59.00
2023-02-26T03:35:37.202Z,58.90
2023-02-26T03:38:12.057Z,58.90
2023-02-26T03:40:50.138Z,58.80
2023-02-26T03:43:39.080Z,58.70
2023-02-26T03:46:15.339Z,58.60
2023-02-26T03:48:44.187Z,58.60
2023-02-26T03:51:14.675Z,58.70
2023-02-26T03:53:54.203Z,58.70
2023-02-26T03:56:33.488Z,58.80
2023-02-26T03:59:06.472Z,58.80
2023-02-26T04:02:03.032Z,58.90
2023-02-26T04:04:46.340Z,58.90
2023-02-26T04:07:15.531Z,59.00
2023-02-26T04:09:44.421Z,59.10
2023-02-26T04:12:11.817Z,59.10
2023-02-26T04:14:42.632Z,59.10
2023-02-26T04:17:10.015Z,59.20
2023-02-26T04:19:37.083Z,59.20
2023-02-26T04:22:04.262Z,59.20
2023-02-26T04:24:31.468Z,59.20
2023-02-26T04:27:01.436Z,59.20
2023-02-26T04:29:28.825Z,59.30
2023-02-26T04:31:55.838Z,59.40
2023-02-26T04:34:22.991Z,59.40
2023-02-26T04:36:50.731Z,59.60
2023-02-26T04:39:17.761Z,59.70
2023-02-26T04:41:45.301Z,59.80
2023-02-26T04:44:13.171Z,59.80
2023-02-26T04:46:42.225Z,59.90
2023-02-26T04:49:10.237Z,60.00
2023-02-26T04:51:39.536Z,60.00
2023-02-26T04:54:08.089Z,60.10
2023-02-26T04:56:35.274Z,60.30
2023-02-26T04:59:03.932Z,60.40
2023-02-26T05:01:32.040Z,60.50
2023-02-26T05:04:05.093Z,60.40
2023-02-26T05:06:32.570Z,60.50
2023-02-26T05:08:59.571Z,60.60
2023-02-26T05:11:26.543Z,60.60
2023-02-26T05:13:53.835Z,60.70
2023-02-26T05:16:20.860Z,60.80
2023-02-26T05:18:47.951Z,61.00
2023-02-26T05:21:15.449Z,61.20
2023-02-26T05:23:42.643Z,61.20
2023-02-26T05:26:09.851Z,61.30
2023-02-26T05:28:36.929Z,61.30
2023-02-26T05:31:04.288Z,61.40
2023-02-26T05:33:31.397Z,61.40
2023-02-26T05:35:58.712Z,61.50
2023-02-26T05:38:25.767Z,61.30
2023-02-26T05:40:57.464Z,61.30
2023-02-26T05:43:25.100Z,61.20
2023-02-26T05:45:52.750Z,61.10
2023-02-26T05:48:19.790Z,61.10
2023-02-26T05:50:48.880Z,61.20
2023-02-26T05:53:16.193Z,61.20
2023-02-26T05:55:43.146Z,61.30
2023-02-26T05:58:10.502Z,61.20
2023-02-26T06:00:37.734Z,61.20
2023-02-26T06:03:04.998Z,61.40
2023-02-26T06:05:32.099Z,61.40
2023-02-26T06:07:59.052Z,61.50
2023-02-26T06:10:26.007Z,61.50
2023-02-26T06:12:52.946Z,61.50
2023-02-26T06:15:20.034Z,61.60
2023-02-26T06:17:47.043Z,61.60
2023-02-26T06:20:14.013Z,61.50
2023-02-26T06:22:41.118Z,61.50
2023-02-26T06:25:08.628Z,61.60
2023-02-26T06:27:35.668Z,61.60
2023-02-26T06:30:03.146Z,61.70
2023-02-26T06:32:30.878Z,61.80
2023-02-26T06:34:58.176Z,61.70
2023-02-26T06:37:25.330Z,61.90
2023-02-26T06:39:52.857Z,61.80
2023-02-26T06:42:20.318Z,61.60
2023-02-26T06:44:47.452Z,61.40
2023-02-26T06:47:14.660Z,61.40
2023-02-26T06:49:41.814Z,61.20
2023-02-26T06:52:08.775Z,61.20
2023-02-26T06:54:35.768Z,60.90
2023-02-26T06:57:03.344Z,60.70
2023-02-26T06:59:30.401Z,60.60
2023-02-26T07:01:57.751Z,60.40
2023-02-26T07:04:24.870Z,60.20
2023-02-26T07:06:51.856Z,59.90
2023-02-26T07:09:21.638Z,59.80
2023-02-26T07:11:48.709Z,58.90
2023-02-26T07:14:15.769Z,58.60
2023-02-26T07:16:42.687Z,58.20
2023-02-26T07:19:09.658Z,57.80
2023-02-26T07:21:36.600Z,57.30
2023-02-26T07:24:03.706Z,57.30
2023-02-26T07:26:30.972Z,57.30
2023-02-26T07:28:57.971Z,57.10
2023-02-26T07:31:25.027Z,57.00
2023-02-26T07:33:52.133Z,57.10
2023-02-26T07:36:19.299Z,57.20
2023-02-26T07:38:46.424Z,57.20
2023-02-26T07:41:13.342Z,57.20
2023-02-26T07:43:40.335Z,57.20
2023-02-26T07:46:07.604Z,57.40
2023-02-26T07:48:37.182Z,56.80
2023-02-26T07:51:04.807Z,55.10
2023-02-26T07:53:31.814Z,53.10
2023-02-26T07:55:58.712Z,51.20
2023-02-26T08:01:41.178Z,47.90
2023-02-26T08:04:08.395Z,47.50
2023-02-26T08:06:35.512Z,47.40
2023-02-26T08:09:03.816Z,46.90
2023-02-26T08:11:32.860Z,47.40
2023-02-26T08:14:27.754Z,48.80
2023-02-26T08:43:15.536Z,54.30
2023-02-26T08:45:42.912Z,54.40
2023-02-26T08:48:10.889Z,54.20
2023-02-26T08:50:38.604Z,54.10
2023-02-26T08:53:06.339Z,53.90
2023-02-26T08:55:33.536Z,53.70
2023-02-26T08:58:00.514Z,53.60
2023-02-26T09:00:27.483Z,53.30
2023-02-26T09:02:54.477Z,53.10
2023-02-26T09:05:22.225Z,53.10
2023-02-26T09:07:49.176Z,53.00
2023-02-26T09:10:16.724Z,52.90
2023-02-26T09:12:44.327Z,52.50
2023-02-26T09:15:12.352Z,52.20
2023-02-26T09:17:40.344Z,51.60
2023-02-26T09:20:09.219Z,51.60
2023-02-26T09:22:36.882Z,51.60
2023-02-26T09:25:05.514Z,51.60
2023-02-26T09:27:33.520Z,51.60
2023-02-26T09:30:00.477Z,51.60
2023-02-26T09:32:27.541Z,51.40
2023-02-26T09:34:54.586Z,50.80
2023-02-26T09:37:21.719Z,50.50
2023-02-26T09:39:50.292Z,50.00
2023-02-26T09:42:37.116Z,50.10
2023-02-26T09:45:05.644Z,48.60
2023-02-26T09:47:50.891Z,48.20
2023-02-26T09:50:47.075Z,47.80
2023-02-26T09:53:31.558Z,47.60
2023-02-26T09:56:21.662Z,47.50
2023-02-26T09:58:50.396Z,47.70
2023-02-26T10:01:35.824Z,47.10
2023-02-26T10:04:23.099Z,47.20
2023-02-26T10:07:15.022Z,47.30
2023-02-26T10:09:57.120Z,47.40
2023-02-26T10:12:27.675Z,47.50
2023-02-26T10:14:57.784Z,47.60
2023-02-26T10:17:46.499Z,47.80
2023-02-26T10:20:29.788Z,47.70
2023-02-26T10:22:59.660Z,47.80
2023-02-26T10:25:37.502Z,47.90
2023-02-26T10:28:07.359Z,48.10
2023-02-26T10:30:45.146Z,47.80
2023-02-26T10:33:29.621Z,47.70
2023-02-26T10:36:04.568Z,47.70
2023-02-26T10:38:32.388Z,47.80
2023-02-26T10:41:04.707Z,47.70
2023-02-26T10:43:41.999Z,47.60
2023-02-26T10:46:40.204Z,47.60
2023-02-26T10:49:22.083Z,47.40
2023-02-26T10:51:52.763Z,47.30
2023-02-26T10:54:25.188Z,47.30
2023-02-26T10:56:52.093Z,47.50
2023-02-26T10:59:19.039Z,47.80
2023-02-26T11:01:48.280Z,48.00
2023-02-26T11:04:19.136Z,48.10
2023-02-26T11:06:51.072Z,48.30
2023-02-26T11:09:31.417Z,48.30
2023-02-26T11:12:18.050Z,48.10
2023-02-26T11:14:46.937Z,47.50
2023-02-26T11:17:28.174Z,47.10
2023-02-26T11:20:15.229Z,46.70
2023-02-26T11:22:47.500Z,46.40
2023-02-26T11:25:19.208Z,46.00
2023-02-26T11:27:49.691Z,45.50
2023-02-26T11:30:18.828Z,45.30
2023-02-26T11:32:50.446Z,45.40
2023-02-26T11:35:18.978Z,45.60
2023-02-26T11:38:00.086Z,46.30
2023-02-26T11:44:32.922Z,48.20
2023-02-26T11:47:05.333Z,48.70
2023-02-26T11:49:32.626Z,49.00
2023-02-26T11:52:21.845Z,49.30
2023-02-26T11:54:51.700Z,49.90
2023-02-26T11:57:27.960Z,50.20
2023-02-26T11:59:57.585Z,50.50
2023-02-26T12:02:30.299Z,50.50
2023-02-26T12:05:01.160Z,50.40
2023-02-26T12:07:30.360Z,50.10
2023-02-26T12:09:57.477Z,49.30
2023-02-26T12:12:38.848Z,48.30
2023-02-26T12:15:32.409Z,47.80
2023-02-26T12:18:18.442Z,47.20
2023-02-26T12:21:15.736Z,46.80
2023-02-26T12:24:13.069Z,46.50
2023-02-26T12:27:06.966Z,45.80
2023-02-26T12:30:01.299Z,45.20
2023-02-26T12:32:36.491Z,45.10
2023-02-26T12:35:15.248Z,44.90
2023-02-26T12:37:49.509Z,44.70
2023-02-26T12:40:30.824Z,44.30
2023-02-26T12:43:11.760Z,43.80
2023-02-26T12:45:59.190Z,43.50
2023-02-26T12:48:58.504Z,44.40
2023-02-26T12:51:43.517Z,45.40
2023-02-26T12:54:49.235Z,45.70
2023-02-26T12:57:25.268Z,45.90
2023-02-26T13:00:20.233Z,45.80
2023-02-26T13:02:56.528Z,45.80
2023-02-26T13:05:29.626Z,45.90
2023-02-26T13:08:33.662Z,45.70
2023-02-26T13:11:06.759Z,45.20
2023-02-26T13:13:36.734Z,45.50
2023-02-26T13:16:12.776Z,45.70
2023-02-26T13:19:06.589Z,46.20
2023-02-26T13:21:38.899Z,46.60
2023-02-26T13:24:15.031Z,46.80
2023-02-26T13:26:43.722Z,47.10
2023-02-26T13:29:15.034Z,47.20
2023-02-26T13:31:51.092Z,47.20
2023-02-26T13:34:39.644Z,47.40
2023-02-26T13:37:10.741Z,47.60
2023-02-26T13:40:18.159Z,47.80
2023-02-26T13:42:53.995Z,48.00
2023-02-26T13:45:52.345Z,48.30
2023-02-26T13:48:51.172Z,48.60
2023-02-26T13:51:30.219Z,49.60
2023-02-26T13:54:00.613Z,49.20
2023-02-26T13:56:33.996Z,49.40
2023-02-26T13:59:05.837Z,49.50
2023-02-26T14:01:33.852Z,49.70
2023-02-26T14:04:22.800Z,49.70
2023-02-26T14:06:55.495Z,49.70
2023-02-26T14:09:22.464Z,49.70
2023-02-26T14:11:55.551Z,49.70
2023-02-26T14:14:22.475Z,49.40
2023-02-26T14:16:55.752Z,49.20
2023-02-26T14:19:43.100Z,48.90
2023-02-26T14:22:26.198Z,48.30
2023-02-26T14:24:54.994Z,48.20
2023-02-26T14:27:23.811Z,48.40
2023-02-26T14:30:14.909Z,48.50
2023-02-26T14:33:05.994Z,48.60
2023-02-26T14:35:39.653Z,48.90
2023-02-26T14:38:37.816Z,49.10
2023-02-26T14:41:36.347Z,49.50
2023-02-26T14:44:21.019Z,50.00
2023-02-26T14:46:49.893Z,50.80
2023-02-26T14:49:36.921Z,51.60
2023-02-26T14:52:31.302Z,52.50
2023-02-26T14:55:16.673Z,53.00
2023-02-26T14:58:28.298Z,53.30
2023-02-26T15:01:32.039Z,53.80
2023-02-26T15:04:17.923Z,54.20
2023-02-26T15:07:03.721Z,54.20
2023-02-26T15:09:52.358Z,54.10
2023-02-26T15:12:40.506Z,54.10
2023-02-26T15:15:22.657Z,54.10
2023-02-26T15:18:04.781Z,54.20
2023-02-26T15:21:32.505Z,54.10
2023-02-26T15:24:00.314Z,54.00
2023-02-26T15:26:29.389Z,53.80
2023-02-26T15:28:58.625Z,53.70
2023-02-26T15:31:37.066Z,53.50
2023-02-26T15:34:04.485Z,53.40
2023-02-26T15:36:32.102Z,53.40
2023-02-26T15:39:01.762Z,53.50
2023-02-26T15:41:31.970Z,53.70
2023-02-26T15:44:08.192Z,54.10
2023-02-26T15:46:38.809Z,54.40
2023-02-26T15:49:19.599Z,54.50
2023-02-26T15:51:47.398Z,54.50
2023-02-26T15:54:18.850Z,55.60
2023-02-26T15:56:46.721Z,56.70
2023-02-26T15:59:18.510Z,57.50
2023-02-26T16:01:45.870Z,57.70
2023-02-26T16:04:18.616Z,57.40
2023-02-26T16:06:54.544Z,57.40
2023-02-26T16:09:29.184Z,57.10
2023-02-26T16:11:59.599Z,56.80
2023-02-26T16:14:32.279Z,56.60
2023-02-26T16:17:00.101Z,56.50
2023-02-26T16:19:38.862Z,57.00
2023-02-26T16:22:16.982Z,57.50
2023-02-26T16:24:44.874Z,58.00
2023-02-26T16:27:13.826Z,58.30
2023-02-26T16:29:51.908Z,58.40
2023-02-26T16:32:20.043Z,58.30
2023-02-26T16:34:53.631Z,58.10
2023-02-26T16:37:33.507Z,58.00
2023-02-26T16:40:21.246Z,57.80
2023-02-26T16:42:51.266Z,57.50
2023-02-26T16:45:24.102Z,57.10
2023-02-26T16:47:54.294Z,56.80
2023-02-26T16:50:27.105Z,56.50
2023-02-26T16:53:19.170Z,56.30
2023-02-26T16:55:56.407Z,56.20
2023-02-26T16:58:25.180Z,56.00
2023-02-26T17:01:01.339Z,55.70
2023-02-26T17:03:31.292Z,55.40
2023-02-26T17:06:17.432Z,55.20
2023-02-26T17:08:59.264Z,54.90
2023-02-26T17:11:37.396Z,54.50
2023-02-26T17:14:38.222Z,54.30
2023-02-26T17:17:20.149Z,54.00
2023-02-26T17:20:03.266Z,53.80
2023-02-26T17:22:49.404Z,53.60
2023-02-26T17:25:58.976Z,53.40
2023-02-26T17:28:48.293Z,53.40
2023-02-26T17:31:38.511Z,53.30
2023-02-26T17:34:10.436Z,53.10
2023-02-26T17:36:43.395Z,52.90
2023-02-26T17:39:13.477Z,52.90
2023-02-26T17:41:44.209Z,52.70
2023-02-26T17:51:07.645Z,52.40
2023-02-26T17:53:40.967Z,52.10
2023-02-26T17:56:14.700Z,52.10
2023-02-26T17:58:41.896Z,52.80
2023-02-26T18:01:11.245Z,54.00
2023-02-26T18:03:40.057Z,54.90
2023-02-26T18:06:07.783Z,55.20
2023-02-26T18:08:35.350Z,55.40
2023-02-26T18:11:03.501Z,55.30
2023-02-26T18:13:33.065Z,55.40
2023-02-26T18:16:02.342Z,55.40
2023-02-26T18:18:29.948Z,55.30
2023-02-26T18:20:57.019Z,55.10
2023-02-26T18:23:24.030Z,55.00
2023-02-26T18:25:53.031Z,54.90
2023-02-26T18:28:23.560Z,54.90
2023-02-26T18:30:51.230Z,54.90
2023-02-26T18:33:19.747Z,54.90
2023-02-26T18:35:54.968Z,54.80
2023-02-26T18:38:25.002Z,54.80
2023-02-26T18:40:53.660Z,54.60
2023-02-26T18:43:21.446Z,54.40
2023-02-26T18:45:50.311Z,54.30
2023-02-26T18:48:19.505Z,54.20
2023-02-26T18:50:49.061Z,54.10
2023-02-26T18:53:17.674Z,53.80
2023-02-26T18:55:46.690Z,53.60
2023-02-26T18:58:13.854Z,53.50
2023-02-26T19:00:41.794Z,53.60
2023-02-26T19:03:09.338Z,53.60
2023-02-26T19:05:36.695Z,53.50
2023-02-26T19:08:05.957Z,53.50
2023-02-26T19:10:34.343Z,53.40
2023-02-26T19:13:01.871Z,53.30
2023-02-26T19:15:28.946Z,53.50
2023-02-26T19:17:56.646Z,53.10
2023-02-26T19:20:23.630Z,52.80
2023-02-26T19:22:50.527Z,52.80
2023-02-26T19:25:24.076Z,52.60
2023-02-26T19:27:54.402Z,52.20
2023-02-26T19:30:23.350Z,52.10
2023-02-26T19:32:51.499Z,52.50
2023-02-26T19:35:19.637Z,51.70
2023-02-26T19:37:47.197Z,51.60
2023-02-26T19:40:19.582Z,51.50
2023-02-26T19:42:47.624Z,51.50
2023-02-26T19:45:15.433Z,51.40
2023-02-26T19:47:42.325Z,51.10
2023-02-26T19:50:10.625Z,51.20
2023-02-26T19:52:37.615Z,51.00
2023-02-26T19:55:07.212Z,51.00
2023-02-26T19:57:34.253Z,50.80
2023-02-26T20:00:49.099Z,50.90
2023-02-26T20:42:34.305Z,50.90
2023-02-26T20:45:01.546Z,50.90
2023-02-26T20:47:28.485Z,50.80
2023-02-26T20:49:55.434Z,50.80
2023-02-26T20:52:24.148Z,50.70
2023-02-26T20:54:51.069Z,50.60
2023-02-26T20:57:17.869Z,50.60
2023-02-26T20:59:44.776Z,50.60
2023-02-26T21:02:14.040Z,50.60
2023-02-26T21:04:41.164Z,50.70
2023-02-26T21:07:21.579Z,50.70
2023-02-26T21:09:50.234Z,51.00
2023-02-26T21:16:37.914Z,50.70
2023-02-26T21:19:50.238Z,50.60
2023-02-26T21:22:19.052Z,50.80
2023-02-26T21:24:46.056Z,50.90
2023-02-26T21:31:17.410Z,50.90
2023-02-26T21:33:45.068Z,50.90
2023-02-26T21:36:14.178Z,50.80
2023-02-26T21:38:42.952Z,50.80
2023-02-26T21:41:14.165Z,51.00
2023-02-26T21:43:41.251Z,51.20
2023-02-26T21:46:08.313Z,51.20
2023-02-26T21:48:35.348Z,51.30
2023-02-26T21:51:02.363Z,51.50
2023-02-26T21:53:29.345Z,51.60
2023-02-26T21:55:57.953Z,51.70
2023-02-26T21:58:25.743Z,51.80
2023-02-26T22:00:56.660Z,51.80
2023-02-26T22:03:24.118Z,52.00
2023-02-26T22:05:54.176Z,52.00
2023-02-26T22:08:22.640Z,51.90
2023-02-26T22:10:51.968Z,51.80
2023-02-26T22:13:19.334Z,51.80
2023-02-26T22:19:03.853Z,52.00
2023-02-26T22:21:31.982Z,52.00
2023-02-26T22:24:02.074Z,52.10
2023-02-26T22:26:29.195Z,52.00
2023-02-26T22:28:59.303Z,52.00
2023-02-26T22:31:31.988Z,52.10
2023-02-26T22:34:00.024Z,52.10
2023-02-26T22:36:28.189Z,52.10
2023-02-26T22:38:55.233Z,52.20
2023-02-26T22:41:22.190Z,52.20
2023-02-26T22:43:49.413Z,52.20
2023-02-26T22:46:17.566Z,52.20
2023-02-26T22:48:44.727Z,52.20
2023-02-26T22:51:11.772Z,52.40
2023-02-26T22:53:38.795Z,52.40
2023-02-26T22:56:06.092Z,52.10
2023-02-26T22:58:33.099Z,52.20
2023-02-26T23:01:01.773Z,52.10
2023-02-26T23:03:29.512Z,52.10
2023-02-26T23:05:57.157Z,51.80
2023-02-26T23:08:25.827Z,51.60
2023-02-26T23:19:21.321Z,51.20
2023-02-26T23:21:48.563Z,51.10
2023-02-26T23:24:15.649Z,51.70
2023-02-26T23:26:42.789Z,51.20
2023-02-26T23:29:10.133Z,51.10
2023-02-26T23:31:37.307Z,51.10
2023-02-26T23:34:07.548Z,51.10
2023-02-26T23:36:34.638Z,50.90
2023-02-26T23:42:50.284Z,50.90
2023-02-26T23:45:17.389Z,50.90
2023-02-26T23:47:44.427Z,50.80
2023-02-26T23:50:12.173Z,50.60
2023-02-26T23:55:29.614Z,50.70
2023-02-26T23:57:56.572Z,50.70
